BAW303 LFPG-EGLL
Flight info
| Callsign | BAW303 |
|---|---|
| Flight time | 0h 53m |
| Altitude | 24000 |
| Route | OPALE DCT KESAX DCT DIMAL DCT ALESO |
| Aircraft | A320/M-SDE3FGHIRWY/LB1 |
Departure
| Time | 2026-05-08 11:26 |
|---|---|
| Airport | Charles de Gaulle International Airport (LFPG) |
Arrival
| Time | 2026-05-08 12:20 |
|---|---|
| Airport | London Heathrow Airport (EGLL) |
| Time | Latitude | Longitude | Altitude | Speed | Heading |
|---|---|---|---|---|---|
| 2026-05-08 11:07 | 49.00197 | 2.56738 | 354 ft | 0 kts | 355° |
| 2026-05-08 11:18 | 49.00196 | 2.56738 | 354 ft | 1 kts | 355° |
| 2026-05-08 11:19 | 49.00172 | 2.56742 | 363 ft | 4 kts | 354° |
| 2026-05-08 11:19 | 49.00146 | 2.56750 | 360 ft | 4 kts | 336° |
| 2026-05-08 11:19 | 49.00126 | 2.56772 | 357 ft | 4 kts | 293° |
| 2026-05-08 11:19 | 49.00122 | 2.56794 | 362 ft | 1 kts | 266° |
| 2026-05-08 11:20 | 49.00123 | 2.56797 | 361 ft | 0 kts | 266° |
| 2026-05-08 11:23 | 49.00122 | 2.56793 | 354 ft | 2 kts | 266° |
| 2026-05-08 11:23 | 49.00119 | 2.56731 | 354 ft | 9 kts | 265° |
| 2026-05-08 11:24 | 49.00114 | 2.56624 | 354 ft | 11 kts | 262° |
| 2026-05-08 11:24 | 49.00078 | 2.56569 | 356 ft | 12 kts | 194° |
| 2026-05-08 11:24 | 48.99984 | 2.56581 | 360 ft | 15 kts | 176° |
| 2026-05-08 11:24 | 48.99871 | 2.56592 | 354 ft | 18 kts | 175° |
| 2026-05-08 11:25 | 48.99763 | 2.56606 | 358 ft | 9 kts | 175° |
| 2026-05-08 11:25 | 48.99696 | 2.56615 | 355 ft | 11 kts | 175° |
| 2026-05-08 11:25 | 48.99642 | 2.56675 | 361 ft | 11 kts | 95° |
| 2026-05-08 11:25 | 48.99658 | 2.56956 | 359 ft | 59 kts | 85° |
| 2026-05-08 11:26 | 48.99711 | 2.57926 | 355 ft | 121 kts | 85° |
| 2026-05-08 11:26 | 48.99787 | 2.59425 | 513 ft | 150 kts | 86° |
| 2026-05-08 11:26 | 48.99874 | 2.61007 | 1101 ft | 152 kts | 85° |
| 2026-05-08 11:26 | 48.99958 | 2.62618 | 1700 ft | 158 kts | 85° |
| 2026-05-08 11:27 | 49.00050 | 2.64407 | 2070 ft | 179 kts | 85° |
| 2026-05-08 11:27 | 49.00160 | 2.66442 | 2365 ft | 208 kts | 85° |
| 2026-05-08 11:27 | 49.00286 | 2.68742 | 2764 ft | 234 kts | 85° |
| 2026-05-08 11:27 | 49.00423 | 2.71320 | 3379 ft | 252 kts | 85° |
| 2026-05-08 11:28 | 49.00617 | 2.74024 | 4238 ft | 260 kts | 76° |
| 2026-05-08 11:28 | 49.01389 | 2.76531 | 5113 ft | 266 kts | 52° |
| 2026-05-08 11:28 | 49.02827 | 2.78315 | 6018 ft | 272 kts | 25° |
| 2026-05-08 11:28 | 49.04673 | 2.78884 | 6897 ft | 276 kts | 356° |
| 2026-05-08 11:29 | 49.06511 | 2.78041 | 7710 ft | 281 kts | 328° |
| 2026-05-08 11:29 | 49.08133 | 2.76342 | 8595 ft | 283 kts | 323° |
| 2026-05-08 11:29 | 49.09757 | 2.74615 | 9514 ft | 286 kts | 323° |
| 2026-05-08 11:29 | 49.11402 | 2.72875 | 10313 ft | 291 kts | 323° |
| 2026-05-08 11:30 | 49.13132 | 2.71045 | 10591 ft | 315 kts | 323° |
| 2026-05-08 11:30 | 49.14999 | 2.69069 | 10794 ft | 338 kts | 324° |
| 2026-05-08 11:30 | 49.16975 | 2.66985 | 11249 ft | 350 kts | 324° |
| 2026-05-08 11:30 | 49.18993 | 2.64863 | 11912 ft | 354 kts | 324° |
| 2026-05-08 11:31 | 49.21035 | 2.62711 | 12620 ft | 358 kts | 324° |
| 2026-05-08 11:31 | 49.23098 | 2.60529 | 13300 ft | 363 kts | 323° |
| 2026-05-08 11:31 | 49.25187 | 2.58311 | 13978 ft | 367 kts | 323° |
| 2026-05-08 11:31 | 49.27272 | 2.56097 | 14601 ft | 371 kts | 323° |
| 2026-05-08 11:32 | 49.29400 | 2.53840 | 15225 ft | 374 kts | 323° |
| 2026-05-08 11:32 | 49.31554 | 2.51559 | 15845 ft | 377 kts | 323° |
| 2026-05-08 11:32 | 49.33724 | 2.49259 | 16462 ft | 381 kts | 323° |
| 2026-05-08 11:32 | 49.35906 | 2.46939 | 17089 ft | 384 kts | 323° |
| 2026-05-08 11:33 | 49.38111 | 2.44587 | 17738 ft | 387 kts | 323° |
| 2026-05-08 11:33 | 49.40335 | 2.42211 | 18373 ft | 391 kts | 323° |
| 2026-05-08 11:33 | 49.42575 | 2.39812 | 18955 ft | 394 kts | 323° |
| 2026-05-08 11:33 | 49.44841 | 2.37387 | 19550 ft | 397 kts | 323° |
| 2026-05-08 11:34 | 49.47116 | 2.34953 | 20150 ft | 401 kts | 323° |
| 2026-05-08 11:34 | 49.49414 | 2.32491 | 20735 ft | 404 kts | 323° |
| 2026-05-08 11:34 | 49.51726 | 2.30006 | 21296 ft | 407 kts | 323° |
| 2026-05-08 11:34 | 49.54056 | 2.27499 | 21828 ft | 410 kts | 323° |
| 2026-05-08 11:35 | 49.56405 | 2.24971 | 22341 ft | 413 kts | 323° |
| 2026-05-08 11:35 | 49.58773 | 2.22419 | 22834 ft | 417 kts | 323° |
| 2026-05-08 11:35 | 49.61155 | 2.19848 | 23308 ft | 420 kts | 323° |
| 2026-05-08 11:35 | 49.63561 | 2.17251 | 23756 ft | 423 kts | 323° |
| 2026-05-08 11:36 | 49.65980 | 2.14638 | 24013 ft | 425 kts | 323° |
| 2026-05-08 11:36 | 49.68411 | 2.12009 | 24079 ft | 432 kts | 323° |
| 2026-05-08 11:36 | 49.70900 | 2.09308 | 24081 ft | 440 kts | 323° |
| 2026-05-08 11:36 | 49.73408 | 2.06579 | 24080 ft | 442 kts | 323° |
| 2026-05-08 11:37 | 49.75893 | 2.03876 | 24078 ft | 443 kts | 323° |
| 2026-05-08 11:37 | 49.78412 | 2.01139 | 24079 ft | 443 kts | 323° |
| 2026-05-08 11:37 | 49.80931 | 1.98401 | 24076 ft | 443 kts | 323° |
| 2026-05-08 11:37 | 49.83451 | 1.95656 | 24076 ft | 443 kts | 323° |
| 2026-05-08 11:38 | 49.85973 | 1.92899 | 24077 ft | 443 kts | 323° |
| 2026-05-08 11:38 | 49.88487 | 1.90141 | 24084 ft | 443 kts | 323° |
| 2026-05-08 11:38 | 49.90990 | 1.87360 | 24084 ft | 442 kts | 322° |
| 2026-05-08 11:38 | 49.93439 | 1.84477 | 24083 ft | 442 kts | 320° |
| 2026-05-08 11:39 | 49.95843 | 1.81511 | 24090 ft | 441 kts | 320° |
| 2026-05-08 11:39 | 49.98228 | 1.78500 | 24086 ft | 441 kts | 319° |
| 2026-05-08 11:39 | 50.00603 | 1.75488 | 24082 ft | 441 kts | 319° |
| 2026-05-08 11:39 | 50.02984 | 1.72482 | 24078 ft | 441 kts | 320° |
| 2026-05-08 11:40 | 50.05376 | 1.69501 | 24078 ft | 441 kts | 321° |
| 2026-05-08 11:40 | 50.07938 | 1.66859 | 24074 ft | 442 kts | 330° |
| 2026-05-08 11:40 | 50.10709 | 1.64778 | 24073 ft | 443 kts | 334° |
| 2026-05-08 11:40 | 50.13477 | 1.62795 | 24072 ft | 443 kts | 334° |
| 2026-05-08 11:41 | 50.16273 | 1.60774 | 24071 ft | 443 kts | 334° |
| 2026-05-08 11:41 | 50.19074 | 1.58738 | 24078 ft | 443 kts | 334° |
| 2026-05-08 11:41 | 50.21867 | 1.56703 | 24078 ft | 443 kts | 334° |
| 2026-05-08 11:41 | 50.24667 | 1.54659 | 24080 ft | 443 kts | 334° |
| 2026-05-08 11:42 | 50.27458 | 1.52618 | 24081 ft | 443 kts | 334° |
| 2026-05-08 11:42 | 50.30255 | 1.50573 | 24081 ft | 443 kts | 334° |
| 2026-05-08 11:42 | 50.33055 | 1.48526 | 24082 ft | 443 kts | 334° |
| 2026-05-08 11:42 | 50.35849 | 1.46482 | 24083 ft | 443 kts | 334° |
| 2026-05-08 11:43 | 50.38643 | 1.44433 | 24081 ft | 443 kts | 334° |
| 2026-05-08 11:43 | 50.41430 | 1.42387 | 24080 ft | 443 kts | 334° |
| 2026-05-08 11:43 | 50.44232 | 1.40328 | 24080 ft | 443 kts | 334° |
| 2026-05-08 11:43 | 50.46964 | 1.38240 | 24085 ft | 442 kts | 330° |
| 2026-05-08 11:44 | 50.49526 | 1.35589 | 24090 ft | 441 kts | 321° |
| 2026-05-08 11:44 | 50.51786 | 1.32352 | 24093 ft | 439 kts | 312° |
| 2026-05-08 11:44 | 50.53846 | 1.28838 | 24095 ft | 439 kts | 311° |
| 2026-05-08 11:44 | 50.55921 | 1.25309 | 24095 ft | 439 kts | 311° |
| 2026-05-08 11:45 | 50.58003 | 1.21783 | 24094 ft | 439 kts | 312° |
| 2026-05-08 11:45 | 50.60127 | 1.18312 | 24099 ft | 440 kts | 313° |
| 2026-05-08 11:45 | 50.62284 | 1.14906 | 24100 ft | 440 kts | 314° |
| 2026-05-08 11:45 | 50.64461 | 1.11528 | 24103 ft | 439 kts | 314° |
| 2026-05-08 11:46 | 50.66639 | 1.08156 | 24103 ft | 439 kts | 314° |
| 2026-05-08 11:46 | 50.68815 | 1.04771 | 24103 ft | 439 kts | 314° |
| 2026-05-08 11:46 | 50.70977 | 1.01378 | 24000 ft | 435 kts | 314° |
| 2026-05-08 11:46 | 50.73102 | 0.98009 | 23772 ft | 431 kts | 314° |
| 2026-05-08 11:47 | 50.75207 | 0.94651 | 23501 ft | 429 kts | 314° |
| 2026-05-08 11:47 | 50.77304 | 0.91300 | 23221 ft | 427 kts | 313° |
| 2026-05-08 11:47 | 50.79391 | 0.87963 | 22945 ft | 426 kts | 314° |
| 2026-05-08 11:47 | 50.81465 | 0.84645 | 22668 ft | 423 kts | 313° |
| 2026-05-08 11:48 | 50.83523 | 0.81349 | 22054 ft | 418 kts | 313° |
| 2026-05-08 11:48 | 50.85557 | 0.78089 | 21414 ft | 414 kts | 313° |
| 2026-05-08 11:48 | 50.87563 | 0.74870 | 20794 ft | 410 kts | 313° |
| 2026-05-08 11:48 | 50.89557 | 0.71664 | 20192 ft | 407 kts | 313° |
| 2026-05-08 11:49 | 50.91507 | 0.68529 | 19606 ft | 404 kts | 313° |
| 2026-05-08 11:49 | 50.93475 | 0.65361 | 19032 ft | 402 kts | 313° |
| 2026-05-08 11:49 | 50.95430 | 0.62215 | 18477 ft | 400 kts | 313° |
| 2026-05-08 11:49 | 50.97378 | 0.59075 | 17842 ft | 398 kts | 313° |
| 2026-05-08 11:50 | 50.99335 | 0.55916 | 16733 ft | 405 kts | 313° |
| 2026-05-08 11:50 | 51.01290 | 0.52755 | 15618 ft | 397 kts | 313° |
| 2026-05-08 11:50 | 51.03205 | 0.49657 | 14574 ft | 388 kts | 313° |
| 2026-05-08 11:50 | 51.05075 | 0.46626 | 13561 ft | 379 kts | 313° |
| 2026-05-08 11:51 | 51.06890 | 0.43678 | 12525 ft | 368 kts | 313° |
| 2026-05-08 11:51 | 51.08681 | 0.40847 | 11776 ft | 360 kts | 314° |
| 2026-05-08 11:51 | 51.10446 | 0.38154 | 11637 ft | 344 kts | 314° |
| 2026-05-08 11:51 | 51.12150 | 0.35593 | 11506 ft | 330 kts | 315° |
| 2026-05-08 11:52 | 51.13790 | 0.33130 | 11372 ft | 318 kts | 315° |
| 2026-05-08 11:52 | 51.15365 | 0.30750 | 11251 ft | 307 kts | 314° |
| 2026-05-08 11:52 | 51.16885 | 0.28438 | 11037 ft | 300 kts | 314° |
| 2026-05-08 11:52 | 51.18379 | 0.26153 | 10788 ft | 295 kts | 313° |
| 2026-05-08 11:53 | 51.19846 | 0.23903 | 10553 ft | 291 kts | 314° |
| 2026-05-08 11:53 | 51.21298 | 0.21672 | 10280 ft | 290 kts | 313° |
| 2026-05-08 11:53 | 51.22761 | 0.19422 | 9824 ft | 293 kts | 314° |
| 2026-05-08 11:53 | 51.24208 | 0.17199 | 9536 ft | 290 kts | 314° |
| 2026-05-08 11:54 | 51.25656 | 0.14968 | 9164 ft | 289 kts | 314° |
| 2026-05-08 11:54 | 51.27098 | 0.12739 | 8794 ft | 288 kts | 313° |
| 2026-05-08 11:54 | 51.28530 | 0.10527 | 8524 ft | 284 kts | 314° |
| 2026-05-08 11:54 | 51.29936 | 0.08354 | 8238 ft | 280 kts | 314° |
| 2026-05-08 11:55 | 51.31335 | 0.06192 | 7921 ft | 279 kts | 313° |
| 2026-05-08 11:55 | 51.32536 | 0.03805 | 7610 ft | 273 kts | 292° |
| 2026-05-08 11:55 | 51.32992 | 0.00928 | 7305 ft | 267 kts | 274° |
| 2026-05-08 11:55 | 51.33142 | -0.02025 | 7100 ft | 265 kts | 270° |
| 2026-05-08 11:56 | 51.33272 | -0.04937 | 7097 ft | 257 kts | 272° |
| 2026-05-08 11:56 | 51.33399 | -0.07701 | 7101 ft | 250 kts | 271° |
| 2026-05-08 11:56 | 51.33526 | -0.10467 | 7100 ft | 250 kts | 271° |
| 2026-05-08 11:56 | 51.33645 | -0.13239 | 7105 ft | 250 kts | 271° |
| 2026-05-08 11:57 | 51.33762 | -0.16013 | 7105 ft | 250 kts | 271° |
| 2026-05-08 11:57 | 51.33881 | -0.18782 | 7105 ft | 250 kts | 271° |
| 2026-05-08 11:57 | 51.34002 | -0.21554 | 7106 ft | 249 kts | 271° |
| 2026-05-08 11:57 | 51.34128 | -0.24319 | 7106 ft | 249 kts | 271° |
| 2026-05-08 11:58 | 51.34247 | -0.27078 | 7107 ft | 249 kts | 271° |
| 2026-05-08 11:58 | 51.34369 | -0.29852 | 7108 ft | 250 kts | 271° |
| 2026-05-08 11:58 | 51.34491 | -0.32623 | 7109 ft | 249 kts | 271° |
| 2026-05-08 11:59 | 51.34734 | -0.38161 | 6778 ft | 249 kts | 271° |
| 2026-05-08 11:59 | 51.34854 | -0.40914 | 6525 ft | 247 kts | 271° |
| 2026-05-08 11:59 | 51.34975 | -0.43651 | 6271 ft | 246 kts | 271° |
| 2026-05-08 11:59 | 51.35097 | -0.46378 | 6011 ft | 246 kts | 271° |
| 2026-05-08 12:00 | 51.35215 | -0.49106 | 5752 ft | 246 kts | 271° |
| 2026-05-08 12:00 | 51.35331 | -0.51830 | 5491 ft | 245 kts | 271° |
| 2026-05-08 12:00 | 51.35442 | -0.54434 | 5243 ft | 241 kts | 271° |
| 2026-05-08 12:00 | 51.35562 | -0.57096 | 4990 ft | 238 kts | 271° |
| 2026-05-08 12:01 | 51.35680 | -0.59729 | 4729 ft | 236 kts | 271° |
| 2026-05-08 12:01 | 51.35794 | -0.62339 | 4469 ft | 235 kts | 270° |
| 2026-05-08 12:01 | 51.35909 | -0.64920 | 4211 ft | 236 kts | 271° |
| 2026-05-08 12:01 | 51.36006 | -0.67051 | 3997 ft | 236 kts | 271° |
| 2026-05-08 12:02 | 51.36123 | -0.69676 | 3743 ft | 237 kts | 271° |
| 2026-05-08 12:02 | 51.36258 | -0.72308 | 3484 ft | 239 kts | 279° |
| 2026-05-08 12:02 | 51.36987 | -0.74673 | 3229 ft | 241 kts | 314° |
| 2026-05-08 12:02 | 51.38383 | -0.76061 | 3038 ft | 238 kts | 347° |
| 2026-05-08 12:03 | 51.39974 | -0.76536 | 2998 ft | 225 kts | 354° |
| 2026-05-08 12:03 | 51.41477 | -0.76828 | 2992 ft | 211 kts | 355° |
| 2026-05-08 12:03 | 51.42914 | -0.77082 | 2991 ft | 206 kts | 356° |
| 2026-05-08 12:03 | 51.44329 | -0.77326 | 2996 ft | 201 kts | 356° |
| 2026-05-08 12:04 | 51.45712 | -0.77575 | 3027 ft | 199 kts | 356° |
| 2026-05-08 12:04 | 51.47048 | -0.77348 | 2980 ft | 191 kts | 30° |
| 2026-05-08 12:04 | 51.47868 | -0.75833 | 2994 ft | 179 kts | 80° |
| 2026-05-08 12:04 | 51.47743 | -0.73911 | 3009 ft | 175 kts | 108° |
| 2026-05-08 12:05 | 51.47606 | -0.71949 | 2929 ft | 179 kts | 92° |
| 2026-05-08 12:05 | 51.47632 | -0.69961 | 2743 ft | 178 kts | 92° |
| 2026-05-08 12:05 | 51.47649 | -0.67987 | 2516 ft | 176 kts | 92° |
| 2026-05-08 12:05 | 51.47662 | -0.66050 | 2285 ft | 172 kts | 92° |
| 2026-05-08 12:06 | 51.47673 | -0.64140 | 2053 ft | 169 kts | 92° |
| 2026-05-08 12:06 | 51.47684 | -0.62339 | 1836 ft | 159 kts | 92° |
| 2026-05-08 12:06 | 51.47693 | -0.60585 | 1624 ft | 158 kts | 93° |
| 2026-05-08 12:06 | 51.47702 | -0.58830 | 1412 ft | 157 kts | 93° |
| 2026-05-08 12:07 | 51.47710 | -0.57099 | 1199 ft | 154 kts | 91° |
| 2026-05-08 12:07 | 51.47718 | -0.55429 | 1018 ft | 143 kts | 92° |
| 2026-05-08 12:07 | 51.47726 | -0.53890 | 795 ft | 134 kts | 93° |
| 2026-05-08 12:07 | 51.47735 | -0.52413 | 603 ft | 132 kts | 93° |
| 2026-05-08 12:08 | 51.47738 | -0.50935 | 431 ft | 133 kts | 92° |
| 2026-05-08 12:08 | 51.47746 | -0.49456 | 263 ft | 133 kts | 92° |
| 2026-05-08 12:08 | 51.47752 | -0.47963 | 102 ft | 134 kts | 94° |
| 2026-05-08 12:08 | 51.47752 | -0.46354 | 547 ft | 151 kts | 93° |
| 2026-05-08 12:09 | 51.47744 | -0.44667 | 1529 ft | 151 kts | 92° |
| 2026-05-08 12:09 | 51.47861 | -0.42899 | 1844 ft | 174 kts | 71° |
| 2026-05-08 12:09 | 51.48771 | -0.41421 | 2149 ft | 202 kts | 34° |
| 2026-05-08 12:09 | 51.50006 | -0.40247 | 2738 ft | 210 kts | 34° |
| 2026-05-08 12:10 | 51.51259 | -0.38976 | 2978 ft | 214 kts | 36° |
| 2026-05-08 12:10 | 51.52531 | -0.37754 | 3003 ft | 215 kts | 25° |
| 2026-05-08 12:10 | 51.53992 | -0.37527 | 3007 ft | 209 kts | 347° |
| 2026-05-08 12:10 | 51.55210 | -0.38687 | 3002 ft | 206 kts | 308° |
| 2026-05-08 12:11 | 51.55752 | -0.40760 | 3016 ft | 202 kts | 272° |
| 2026-05-08 12:11 | 51.55741 | -0.43012 | 3013 ft | 202 kts | 262° |
| 2026-05-08 12:11 | 51.55625 | -0.45235 | 3013 ft | 202 kts | 262° |
| 2026-05-08 12:11 | 51.55483 | -0.47504 | 3010 ft | 201 kts | 261° |
| 2026-05-08 12:12 | 51.55346 | -0.49606 | 3006 ft | 201 kts | 261° |
| 2026-05-08 12:12 | 51.55193 | -0.51843 | 2966 ft | 202 kts | 261° |
| 2026-05-08 12:12 | 51.55041 | -0.54074 | 2808 ft | 201 kts | 261° |
| 2026-05-08 12:12 | 51.54898 | -0.56312 | 2649 ft | 201 kts | 261° |
| 2026-05-08 12:13 | 51.54755 | -0.58530 | 2557 ft | 199 kts | 261° |
| 2026-05-08 12:13 | 51.54608 | -0.60748 | 2497 ft | 200 kts | 261° |
| 2026-05-08 12:13 | 51.54463 | -0.62977 | 2501 ft | 201 kts | 261° |
| 2026-05-08 12:13 | 51.54370 | -0.64455 | 2507 ft | 202 kts | 261° |
| 2026-05-08 12:14 | 51.54230 | -0.66705 | 2502 ft | 202 kts | 261° |
| 2026-05-08 12:14 | 51.54086 | -0.68954 | 2502 ft | 202 kts | 261° |
| 2026-05-08 12:14 | 51.53748 | -0.71092 | 2510 ft | 194 kts | 233° |
| 2026-05-08 12:14 | 51.52764 | -0.72401 | 2535 ft | 183 kts | 194° |
| 2026-05-08 12:15 | 51.51533 | -0.72778 | 2508 ft | 179 kts | 182° |
| 2026-05-08 12:15 | 51.50290 | -0.72943 | 2496 ft | 179 kts | 181° |
| 2026-05-08 12:15 | 51.49064 | -0.72891 | 2493 ft | 175 kts | 159° |
| 2026-05-08 12:15 | 51.48082 | -0.71815 | 2493 ft | 170 kts | 128° |
| 2026-05-08 12:16 | 51.47653 | -0.70149 | 2494 ft | 160 kts | 97° |
| 2026-05-08 12:16 | 51.47647 | -0.68360 | 2460 ft | 159 kts | 92° |
| 2026-05-08 12:16 | 51.47659 | -0.66601 | 2313 ft | 157 kts | 92° |
| 2026-05-08 12:16 | 51.47669 | -0.64849 | 2129 ft | 158 kts | 92° |
| 2026-05-08 12:17 | 51.47679 | -0.63107 | 1929 ft | 156 kts | 91° |
| 2026-05-08 12:17 | 51.47689 | -0.61363 | 1719 ft | 157 kts | 93° |
| 2026-05-08 12:17 | 51.47698 | -0.59611 | 1504 ft | 156 kts | 93° |
| 2026-05-08 12:17 | 51.47706 | -0.57886 | 1294 ft | 153 kts | 92° |
| 2026-05-08 12:18 | 51.47715 | -0.56241 | 1078 ft | 142 kts | 93° |
| 2026-05-08 12:18 | 51.47722 | -0.54741 | 907 ft | 132 kts | 93° |
| 2026-05-08 12:18 | 51.47728 | -0.53249 | 732 ft | 134 kts | 92° |
| 2026-05-08 12:18 | 51.47735 | -0.51778 | 538 ft | 133 kts | 92° |
| 2026-05-08 12:19 | 51.47741 | -0.50287 | 386 ft | 131 kts | 93° |
| 2026-05-08 12:19 | 51.47751 | -0.48822 | 176 ft | 132 kts | 94° |
| 2026-05-08 12:19 | 51.47754 | -0.47386 | 88 ft | 116 kts | 90° |
| 2026-05-08 12:19 | 51.47758 | -0.46381 | 89 ft | 65 kts | 90° |
| 2026-05-08 12:20 | 51.47758 | -0.45831 | 86 ft | 44 kts | 89° |
| 2026-05-08 12:20 | 51.47735 | -0.45493 | 87 ft | 22 kts | 136° |
| 2026-05-08 12:20 | 51.47619 | -0.45472 | 86 ft | 12 kts | 196° |
| 2026-05-08 12:20 | 51.47593 | -0.45574 | 86 ft | 10 kts | 271° |
| 2026-05-08 12:21 | 51.47595 | -0.45676 | 87 ft | 9 kts | 271° |
| 2026-05-08 12:21 | 51.47595 | -0.45842 | 87 ft | 19 kts | 269° |
| 2026-05-08 12:21 | 51.47595 | -0.46048 | 87 ft | 18 kts | 270° |
| 2026-05-08 12:21 | 51.47594 | -0.46240 | 86 ft | 17 kts | 269° |
| 2026-05-08 12:22 | 51.47593 | -0.46419 | 86 ft | 15 kts | 270° |
| 2026-05-08 12:22 | 51.47593 | -0.46583 | 86 ft | 14 kts | 269° |
| 2026-05-08 12:22 | 51.47592 | -0.46775 | 86 ft | 24 kts | 269° |
| 2026-05-08 12:22 | 51.47582 | -0.47047 | 88 ft | 24 kts | 270° |
| 2026-05-08 12:23 | 51.47581 | -0.47304 | 89 ft | 23 kts | 270° |
| 2026-05-08 12:23 | 51.47581 | -0.47552 | 90 ft | 22 kts | 270° |
| 2026-05-08 12:23 | 51.47580 | -0.47787 | 86 ft | 21 kts | 269° |
| 2026-05-08 12:23 | 51.47579 | -0.48010 | 87 ft | 19 kts | 270° |
| 2026-05-08 12:24 | 51.47578 | -0.48221 | 89 ft | 18 kts | 269° |
| 2026-05-08 12:24 | 51.47577 | -0.48416 | 89 ft | 15 kts | 267° |
| 2026-05-08 12:24 | 51.47500 | -0.48476 | 86 ft | 13 kts | 179° |
| 2026-05-08 12:24 | 51.47412 | -0.48475 | 86 ft | 12 kts | 180° |
| 2026-05-08 12:25 | 51.47329 | -0.48474 | 86 ft | 11 kts | 180° |
| 2026-05-08 12:25 | 51.47274 | -0.48491 | 88 ft | 6 kts | 239° |
| 2026-05-08 12:25 | 51.47271 | -0.48546 | 87 ft | 4 kts | 269° |
| 2026-05-08 12:25 | 51.47271 | -0.48585 | 89 ft | 3 kts | 270° |
| 2026-05-08 12:26 | 51.47271 | -0.48589 | 89 ft | 0 kts | 269° |